Friendship, MD (20758)

7:00 PM EDT on September 02, 2015 (GMT -0400)
Victoria Station | | Change Station
CLOSE
Current Station
Personal Weather Station
Location: Owings, MD
Elevation: 157 ft
Nearby Weather Stations

Elev 157 ft 38.69 °N, 76.62 °W | Updated 5 minutes ago

Partly Cloudy
Partly Cloudy
77.4 °F
Feels Like 79 °F
N
0.0
Wind Variable Wind from South
Gusts 0.0 mph

Today
High -- | Low -- °F
--% Chance of Precip.
Yesterday
High -- | Low -- °F
Precip. -- in
6:36 AM 7:35 PM
Waning Gibbous, 76% visible
Pressure 29.94 in
Visibility 10.0 miles
Clouds Clear
Heat Index 79 °F
Dew Point 76 °F
Humidity 95%
Rainfall 0.28 in
Snow Depth Not available.
UV 0 out of 12
Pollen 10.30 out of 12
Air Quality Not available.
Flu Activity Not available.
METAR KADW 022258Z AUTO 25006KT 10SM CLR 30/20 A2992 RMK AO2 LTG DSNT NE SLP136 T03010201
Pressure 29.94 in
Visibility 10.0 miles
Clouds Clear
Heat Index 79 °F
Dew Point 76 °F
Humidity 95%
Rainfall 0.28 in
Snow Depth Not available.
UV 0 out of 12
Pollen 10.30 out of 12
Air Quality Not available.
Flu Activity Not available.
METAR KADW 022258Z AUTO 25006KT 10SM CLR 30/20 A2992 RMK AO2 LTG DSNT NE SLP136 T03010201

10-Day Weather Forecast

×

Almanac

Astronomy

Sep. 02, 2015 Rise Set
Actual Time
Civil Twilight
Nautical Twilight
Astronomical Twilight
Moon
Length of Visible Light
Length of Day
Tomorrow will be .
, % of the Moon is Illuminated

Today's Extremes

State Highs State Lows

Community

WunderPhotos

Upload Photos

1,851,821 photos uploaded!

WunderBlogs® & News

Nearby

Air Quality

  Air Quality AQ Index Pollutant
Not available.

Snow Depth

Station Depth Elevation

Earthquake Activity

City Distance Mag. Time & Date
Minimum magnitude displayed is 2.5.

Coastal Water Temperatures

Place Temperature

Stations

Nearby Weather Stations

Station Location Temp. Windchill Dew Point Humidity Wind Precip. Elev Updated Type